Time;durP1;ratioP1;P1;durP2;ratioP2;P2;SDS_P1;SDS_P2;PMS_P1;PMS_P2;Temp;Humidity;BMP_temperature;BMP_pressure;BME280_temperature;BME280_humidity;BME280_pressure;Samples;Min_cycle;Max_cycle;Signal;HPM_P1;HPM_P2
2023/08/28 00:01:27;;;;;;;5.50;2.70;;;19.20;76.50;;;;;;5026665;28;20471;-79
2023/08/28 00:03:55;;;;;;;5.43;2.57;;;19.20;76.50;;;;;;5024947;28;20551;-79
2023/08/28 00:06:24;;;;;;;5.50;2.83;;;19.20;76.40;;;;;;5030871;28;20471;-79
2023/08/28 00:08:51;;;;;;;7.50;2.33;;;19.10;76.40;;;;;;5020615;28;20465;-79
2023/08/28 00:11:20;;;;;;;5.10;2.50;;;19.10;76.40;;;;;;5027003;28;20566;-79
2023/08/28 00:13:49;;;;;;;5.00;2.50;;;19.00;76.60;;;;;;5029934;28;20531;-79
2023/08/28 00:16:17;;;;;;;6.37;2.90;;;19.00;76.60;;;;;;5024388;28;20447;-79
2023/08/28 00:18:45;;;;;;;4.93;2.50;;;18.90;76.70;;;;;;5021742;28;20463;-79
2023/08/28 00:21:13;;;;;;;6.33;2.83;;;18.90;76.80;;;;;;5026943;28;20445;-79
2023/08/28 00:23:41;;;;;;;6.60;2.73;;;18.90;76.80;;;;;;5028665;28;20458;-79
2023/08/28 00:26:09;;;;;;;6.70;2.80;;;18.90;76.90;;;;;;5027721;28;20462;-78
2023/08/28 00:28:37;;;;;;;7.47;2.43;;;18.90;76.90;;;;;;5032202;28;20458;-79
2023/08/28 00:31:07;;;;;;;7.63;2.87;;;18.90;77.00;;;;;;5023569;28;20638;-80
2023/08/28 00:33:35;;;;;;;6.53;2.87;;;18.80;77.00;;;;;;5023256;28;20529;-80
2023/08/28 00:36:03;;;;;;;8.77;2.90;;;18.80;77.00;;;;;;5022274;28;20471;-80
2023/08/28 00:38:33;;;;;;;7.23;2.40;;;18.80;77.10;;;;;;5017049;28;20808;-80
2023/08/28 00:41:01;;;;;;;6.20;2.70;;;18.70;77.20;;;;;;5034875;28;20456;-79
2023/08/28 00:43:30;;;;;;;6.50;2.77;;;18.70;77.20;;;;;;5026212;28;21174;-79
2023/08/28 00:45:58;;;;;;;7.87;3.30;;;18.80;77.20;;;;;;5027657;28;20452;-80
2023/08/28 00:48:29;;;;;;;8.73;2.97;;;18.80;77.20;;;;;;5030556;28;20464;-78
2023/08/28 00:50:58;;;;;;;7.00;2.83;;;18.80;77.20;;;;;;5024903;28;20889;-79
2023/08/28 00:53:27;;;;;;;7.17;2.80;;;18.70;77.20;;;;;;5025106;28;21034;-79
2023/08/28 00:55:55;;;;;;;7.50;3.37;;;18.70;77.30;;;;;;5031859;28;20668;-78
2023/08/28 00:58:23;;;;;;;8.00;2.60;;;18.70;77.30;;;;;;5023063;28;20470;-78
2023/08/28 01:00:52;;;;;;;7.67;3.50;;;18.70;77.20;;;;;;5028331;28;20554;-78
2023/08/28 01:03:21;;;;;;;6.03;2.70;;;18.70;77.20;;;;;;5028238;28;20515;-80
2023/08/28 01:06:01;;;;;;;7.03;3.27;;;18.60;77.20;;;;;;5022334;28;20951;-79
2023/08/28 01:08:34;;;;;;;5.40;2.70;;;18.60;77.20;;;;;;5028581;28;20469;-78
2023/08/28 01:11:11;;;;;;;7.17;2.60;;;18.60;77.20;;;;;;5031970;28;20446;-79
2023/08/28 01:13:48;;;;;;;6.53;2.70;;;18.60;77.00;;;;;;5022175;28;20547;-78
2023/08/28 01:16:19;;;;;;;5.63;2.80;;;18.60;77.00;;;;;;5021477;28;20597;-77
2023/08/28 01:18:48;;;;;;;6.30;2.93;;;18.50;77.10;;;;;;5021849;28;21037;-78
2023/08/28 01:21:18;;;;;;;6.77;3.17;;;18.50;77.00;;;;;;5021984;28;20455;-77
2023/08/28 01:23:55;;;;;;;8.50;3.13;;;18.50;77.00;;;;;;5023195;28;20461;-78
2023/08/28 01:26:25;;;;;;;8.50;2.73;;;18.50;77.00;;;;;;5026063;28;20488;-78
2023/08/28 01:28:54;;;;;;;6.10;2.90;;;18.40;77.00;;;;;;5025381;28;20494;-78
2023/08/28 01:31:24;;;;;;;6.83;2.97;;;18.40;77.10;;;;;;5021286;28;20482;-78
2023/08/28 01:33:53;;;;;;;5.57;2.90;;;18.40;77.20;;;;;;5019697;28;20463;-78
2023/08/28 01:36:29;;;;;;;12.20;3.60;;;18.40;77.20;;;;;;5018638;28;20572;-77
2023/08/28 01:39:04;;;;;;;7.63;3.20;;;18.40;77.10;;;;;;5022383;28;20461;-80
2023/08/28 01:41:34;;;;;;;6.17;2.83;;;18.30;77.20;;;;;;5029222;28;20553;-78
2023/08/28 01:44:06;;;;;;;9.67;3.30;;;18.30;77.20;;;;;;5022383;28;20467;-80
2023/08/28 01:46:35;;;;;;;4.97;2.70;;;18.30;77.30;;;;;;5025648;28;20498;-78
2023/08/28 01:49:03;;;;;;;5.67;3.17;;;18.30;77.40;;;;;;5023513;28;20448;-78
2023/08/28 01:51:31;;;;;;;8.53;3.10;;;18.30;77.40;;;;;;5024549;28;20457;-78
2023/08/28 01:53:59;;;;;;;7.83;3.27;;;18.30;77.40;;;;;;5021749;28;20475;-77
2023/08/28 01:56:29;;;;;;;6.37;2.80;;;18.30;77.30;;;;;;5022849;28;20546;-78
2023/08/28 01:59:02;;;;;;;8.17;3.00;;;18.20;77.30;;;;;;5021364;28;20994;-77
2023/08/28 02:01:30;;;;;;;8.80;3.70;;;18.20;77.30;;;;;;5023258;28;20491;-78
2023/08/28 02:04:00;;;;;;;7.07;3.50;;;18.20;77.30;;;;;;5022184;28;20512;-77
2023/08/28 02:06:28;;;;;;;8.63;3.50;;;18.20;77.30;;;;;;5029005;28;21109;-79
2023/08/28 02:08:56;;;;;;;10.80;3.50;;;18.20;77.40;;;;;;5029279;28;20480;-79
2023/08/28 02:11:27;;;;;;;7.87;3.63;;;18.10;77.40;;;;;;5025891;28;20462;-80
2023/08/28 02:14:01;;;;;;;6.07;3.40;;;18.10;77.50;;;;;;5026063;28;20462;-81
2023/08/28 02:16:28;;;;;;;5.13;3.03;;;18.10;77.50;;;;;;5025547;28;20463;-81
2023/08/28 02:18:57;;;;;;;6.13;2.83;;;18.10;77.50;;;;;;5027086;28;20458;-79
2023/08/28 02:21:25;;;;;;;6.37;2.93;;;18.10;77.50;;;;;;5026022;28;20543;-81
2023/08/28 02:23:53;;;;;;;5.93;3.23;;;18.10;77.60;;;;;;5026091;28;20518;-79
2023/08/28 02:26:21;;;;;;;10.27;3.63;;;18.10;77.60;;;;;;5032251;28;21200;-79
2023/08/28 02:28:49;;;;;;;6.90;2.80;;;18.10;77.60;;;;;;5036910;28;20501;-79
2023/08/28 02:31:19;;;;;;;7.70;3.30;;;18.10;77.70;;;;;;5023529;28;20524;-79
2023/08/28 02:33:47;;;;;;;8.50;3.50;;;18.10;77.80;;;;;;5025854;28;20506;-79
2023/08/28 02:36:16;;;;;;;9.23;3.20;;;18.10;77.80;;;;;;5023808;28;20948;-81
2023/08/28 02:38:44;;;;;;;7.87;3.20;;;18.00;77.80;;;;;;5027491;28;20475;-80
2023/08/28 02:41:12;;;;;;;7.43;2.70;;;18.10;77.90;;;;;;5030104;28;20558;-79
2023/08/28 02:43:40;;;;;;;8.60;3.07;;;18.10;77.90;;;;;;5028387;28;20482;-79
2023/08/28 02:46:18;;;;;;;5.27;2.60;;;18.10;77.90;;;;;;5045282;28;20470;-80
2023/08/28 02:48:46;;;;;;;6.97;3.07;;;18.10;77.90;;;;;;5040993;28;20536;-78
2023/08/28 02:51:15;;;;;;;6.23;2.60;;;18.00;77.90;;;;;;5041319;28;20557;-78
2023/08/28 02:53:43;;;;;;;5.07;2.83;;;18.00;77.90;;;;;;5026323;28;20460;-78
2023/08/28 02:56:25;;;;;;;6.30;2.70;;;18.00;77.90;;;;;;5029102;28;20458;-80
2023/08/28 02:58:54;;;;;;;5.90;2.93;;;18.00;77.90;;;;;;5023441;28;20470;-77
2023/08/28 03:01:23;;;;;;;4.77;2.70;;;18.00;77.80;;;;;;5024139;28;20963;-78
2023/08/28 03:03:51;;;;;;;10.90;2.67;;;18.00;77.90;;;;;;5034991;28;20467;-78
2023/08/28 03:06:20;;;;;;;7.83;3.37;;;18.00;77.90;;;;;;5020586;28;20862;-78
2023/08/28 03:08:48;;;;;;;7.83;3.53;;;18.00;77.90;;;;;;5021172;28;20551;-80
2023/08/28 03:11:16;;;;;;;6.03;3.20;;;17.90;78.00;;;;;;5025320;28;20459;-79
2023/08/28 03:13:44;;;;;;;8.07;3.27;;;17.90;78.00;;;;;;5022776;28;20483;-80
2023/08/28 03:16:13;;;;;;;7.37;3.60;;;17.90;78.10;;;;;;5023399;28;20481;-79
2023/08/28 03:18:42;;;;;;;6.97;3.20;;;17.90;78.10;;;;;;5026525;28;20462;-78
2023/08/28 03:21:10;;;;;;;5.77;2.93;;;17.90;78.20;;;;;;5027155;28;20458;-79
2023/08/28 03:23:38;;;;;;;12.13;2.90;;;17.90;78.20;;;;;;5022703;28;20512;-79
2023/08/28 03:26:08;;;;;;;8.40;3.27;;;17.90;78.20;;;;;;5026405;28;20455;-78
2023/08/28 03:28:36;;;;;;;6.80;3.50;;;17.90;78.20;;;;;;5016453;28;20448;-79
2023/08/28 03:31:04;;;;;;;8.30;3.60;;;17.90;78.20;;;;;;5020732;28;20481;-81
2023/08/28 03:33:33;;;;;;;10.00;3.43;;;17.90;78.20;;;;;;5019089;28;20471;-79
2023/08/28 03:36:02;;;;;;;9.23;4.30;;;17.90;78.30;;;;;;5026892;28;20467;-80
2023/08/28 03:38:31;;;;;;;7.63;3.60;;;17.90;78.20;;;;;;5020861;28;21143;-80
2023/08/28 03:40:59;;;;;;;8.53;3.47;;;17.90;78.20;;;;;;5032944;28;20992;-80
2023/08/28 03:43:27;;;;;;;8.33;4.07;;;17.90;78.50;;;;;;5028986;28;20459;-79
2023/08/28 03:45:55;;;;;;;5.90;3.30;;;17.90;78.50;;;;;;5026545;28;20527;-76
2023/08/28 03:48:24;;;;;;;7.20;3.40;;;17.90;78.40;;;;;;5018134;28;20460;-78
2023/08/28 03:50:52;;;;;;;8.27;3.90;;;17.90;78.50;;;;;;5020651;28;20811;-78
2023/08/28 03:53:21;;;;;;;7.43;3.63;;;17.90;78.50;;;;;;5023389;28;20486;-79
2023/08/28 03:55:50;;;;;;;10.13;3.70;;;17.90;78.40;;;;;;5027375;28;20483;-79
2023/08/28 03:58:20;;;;;;;8.93;3.57;;;17.90;78.40;;;;;;5025956;28;20455;-79
2023/08/28 04:00:53;;;;;;;6.20;3.60;;;17.90;78.30;;;;;;5023170;28;20496;-78
2023/08/28 04:03:22;;;;;;;6.90;3.77;;;17.90;78.30;;;;;;5017913;28;20453;-79
2023/08/28 04:05:52;;;;;;;7.30;4.60;;;17.80;78.30;;;;;;5020359;28;20898;-79
2023/08/28 04:08:23;;;;;;;8.10;4.37;;;17.80;78.30;;;;;;5034412;28;20472;-78
2023/08/28 04:10:52;;;;;;;9.20;4.87;;;17.70;78.30;;;;;;5018187;28;20464;-79
2023/08/28 04:13:21;;;;;;;9.37;4.80;;;17.70;78.40;;;;;;5019666;28;20488;-81
2023/08/28 04:15:49;;;;;;;7.43;4.03;;;17.70;78.40;;;;;;5022519;28;20465;-79
2023/08/28 04:18:18;;;;;;;7.83;5.10;;;17.70;78.50;;;;;;5022774;28;20556;-81
2023/08/28 04:20:46;;;;;;;8.03;4.10;;;17.70;78.50;;;;;;5017485;28;20668;-77
2023/08/28 04:23:16;;;;;;;7.90;4.03;;;17.70;78.50;;;;;;5023571;28;20848;-80
2023/08/28 04:25:46;;;;;;;8.43;3.87;;;17.70;78.50;;;;;;5023850;28;20459;-80
2023/08/28 04:28:15;;;;;;;9.00;4.10;;;17.70;78.50;;;;;;5021992;28;20445;-79
2023/08/28 04:30:43;;;;;;;6.20;3.60;;;17.70;78.40;;;;;;5020401;28;20473;-79
2023/08/28 04:33:11;;;;;;;6.60;3.80;;;17.70;78.40;;;;;;5018645;28;20476;-79
2023/08/28 04:35:40;;;;;;;5.93;3.60;;;17.60;78.40;;;;;;5020482;28;20462;-80
2023/08/28 04:38:08;;;;;;;9.90;3.90;;;17.60;78.40;;;;;;5024439;28;20458;-79
2023/08/28 04:40:36;;;;;;;9.53;4.13;;;17.60;78.40;;;;;;5018469;28;20509;-77
2023/08/28 04:43:06;;;;;;;5.90;3.63;;;17.60;78.40;;;;;;5023089;28;20484;-78
2023/08/28 04:45:34;;;;;;;8.20;4.27;;;17.60;78.40;;;;;;5018895;28;20466;-78
2023/08/28 04:48:04;;;;;;;8.23;4.07;;;17.60;78.50;;;;;;5019976;28;20516;-78
2023/08/28 04:50:32;;;;;;;6.00;3.30;;;17.60;78.50;;;;;;5020434;28;20473;-79
2023/08/28 04:53:00;;;;;;;8.33;4.00;;;17.60;78.50;;;;;;5023673;28;20477;-79
2023/08/28 04:55:28;;;;;;;7.47;4.17;;;17.60;78.50;;;;;;5023269;28;20458;-79
2023/08/28 04:57:56;;;;;;;7.73;3.77;;;17.70;78.50;;;;;;5025143;28;20458;-77
2023/08/28 05:00:27;;;;;;;9.03;3.70;;;17.70;78.50;;;;;;5019902;28;20466;-79
2023/08/28 05:02:55;;;;;;;7.10;3.37;;;17.60;78.40;;;;;;5025961;28;20475;-80
2023/08/28 05:05:23;;;;;;;11.07;3.60;;;17.60;78.50;;;;;;5022313;28;20459;-81
2023/08/28 05:07:51;;;;;;;8.03;4.10;;;17.60;78.50;;;;;;5026857;28;20546;-81
2023/08/28 05:10:19;;;;;;;9.10;3.93;;;17.60;78.60;;;;;;5020404;28;20970;-81
2023/08/28 05:12:47;;;;;;;9.85;4.82;;;17.60;78.60;;;;;;5020392;28;20457;-80
2023/08/28 05:15:15;;;;;;;9.87;4.20;;;17.70;78.80;;;;;;5016395;28;20703;-81
2023/08/28 05:17:46;;;;;;;11.90;3.90;;;17.70;78.60;;;;;;5025359;28;20540;-83
2023/08/28 05:20:14;;;;;;;8.00;3.67;;;17.60;78.60;;;;;;5025478;28;20494;-83
2023/08/28 05:22:42;;;;;;;6.70;3.20;;;17.60;78.70;;;;;;5023783;28;20450;-83
2023/08/28 05:25:10;;;;;;;6.40;3.10;;;17.60;78.70;;;;;;5025141;28;20532;-81
2023/08/28 05:27:39;;;;;;;6.87;3.47;;;17.60;78.70;;;;;;5026103;28;20462;-84
2023/08/28 05:30:08;;;;;;;8.30;3.87;;;17.60;78.80;;;;;;5020121;28;20549;-81
2023/08/28 05:32:36;;;;;;;7.67;3.97;;;17.60;78.80;;;;;;5021630;28;20545;-80
2023/08/28 05:35:06;;;;;;;8.33;3.50;;;17.60;78.80;;;;;;5021766;28;21000;-83
2023/08/28 05:37:35;;;;;;;8.53;4.10;;;17.60;78.80;;;;;;5023227;28;20488;-83
2023/08/28 05:40:05;;;;;;;6.63;3.20;;;17.60;78.90;;;;;;5024746;28;20593;-83
2023/08/28 05:42:37;;;;;;;8.73;3.53;;;17.60;78.90;;;;;;5016523;28;20836;-86
2023/08/28 05:45:07;;;;;;;5.90;3.53;;;17.60;79.00;;;;;;5021325;28;20539;-80
2023/08/28 05:47:36;;;;;;;7.63;3.77;;;17.60;79.00;;;;;;5020273;28;20451;-78
2023/08/28 05:50:07;;;;;;;8.20;3.37;;;17.60;79.10;;;;;;5025453;28;20466;-77
2023/08/28 05:52:38;;;;;;;7.93;3.93;;;17.70;79.20;;;;;;5026324;28;21022;-79
2023/08/28 05:55:07;;;;;;;7.40;3.33;;;17.70;79.20;;;;;;5033436;28;20474;-78
2023/08/28 05:57:35;;;;;;;8.73;4.07;;;17.70;79.20;;;;;;5022390;28;20450;-78
2023/08/28 06:00:03;;;;;;;6.47;3.83;;;17.70;79.20;;;;;;5023505;28;20976;-78
2023/08/28 06:02:39;;;;;;;6.17;3.70;;;17.70;79.20;;;;;;5026462;28;20484;-76
2023/08/28 06:05:09;;;;;;;8.53;3.47;;;17.70;79.20;;;;;;5028570;28;20464;-78
2023/08/28 06:07:37;;;;;;;9.60;3.90;;;17.80;79.30;;;;;;5019067;28;20512;-79
2023/08/28 06:10:07;;;;;;;7.60;3.47;;;17.80;79.30;;;;;;5025904;28;20460;-78
2023/08/28 06:12:35;;;;;;;9.20;3.60;;;17.80;79.30;;;;;;5018240;28;20454;-78
2023/08/28 06:15:04;;;;;;;8.30;3.70;;;17.80;79.30;;;;;;5020367;28;20506;-78
2023/08/28 06:17:32;;;;;;;7.00;3.27;;;17.80;79.30;;;;;;5022031;28;20458;-78
2023/08/28 06:20:00;;;;;;;5.60;3.23;;;17.80;79.20;;;;;;5025329;28;20467;-78
2023/08/28 06:22:30;;;;;;;7.33;3.50;;;17.80;79.30;;;;;;5023148;28;20465;-78
2023/08/28 06:24:58;;;;;;;6.40;3.90;;;17.80;79.30;;;;;;5024072;28;20511;-79
2023/08/28 06:27:26;;;;;;;8.20;4.13;;;17.80;79.30;;;;;;5023371;28;20455;-81
2023/08/28 06:29:54;;;;;;;11.37;3.60;;;17.80;79.30;;;;;;5022218;28;20478;-77
2023/08/28 06:32:22;;;;;;;7.07;3.37;;;17.80;79.30;;;;;;5019906;28;20852;-80
2023/08/28 06:34:50;;;;;;;6.90;3.13;;;17.80;79.30;;;;;;5025980;28;20528;-80
2023/08/28 06:37:18;;;;;;;8.20;3.37;;;17.70;79.30;;;;;;5026407;28;21050;-78
2023/08/28 06:39:48;;;;;;;6.30;3.90;;;17.70;79.20;;;;;;5023046;28;21166;-79
2023/08/28 06:42:16;;;;;;;8.07;3.10;;;17.70;79.20;;;;;;5026059;28;20818;-80
2023/08/28 06:44:44;;;;;;;6.43;3.20;;;17.70;79.30;;;;;;5027715;28;20447;-81
2023/08/28 06:47:13;;;;;;;7.37;3.50;;;17.60;79.30;;;;;;5031341;28;20519;-80
2023/08/28 06:49:41;;;;;;;10.23;4.10;;;17.60;79.40;;;;;;5024801;28;20460;-77
2023/08/28 06:52:10;;;;;;;7.70;3.60;;;17.60;79.40;;;;;;5025077;28;20464;-75
2023/08/28 06:54:44;;;;;;;9.47;4.40;;;17.70;79.40;;;;;;5026857;28;20474;-78
2023/08/28 06:57:20;;;;;;;9.17;3.73;;;17.60;79.30;;;;;;5030590;28;20566;-79
2023/08/28 06:59:49;;;;;;;7.53;4.83;;;17.60;79.20;;;;;;5024483;28;20474;-80
2023/08/28 07:02:17;;;;;;;9.10;4.30;;;17.50;79.30;;;;;;5029316;28;20546;-79
2023/08/28 07:04:46;;;;;;;10.60;5.03;;;17.50;79.40;;;;;;5026516;28;20458;-77
2023/08/28 07:07:16;;;;;;;7.00;4.80;;;17.50;79.40;;;;;;5022060;28;20540;-81
2023/08/28 07:09:44;;;;;;;7.87;5.37;;;17.50;79.50;;;;;;5025339;28;20970;-80
2023/08/28 07:12:12;;;;;;;9.40;4.97;;;17.50;79.60;;;;;;5028026;28;20469;-78
2023/08/28 07:14:41;;;;;;;13.03;4.80;;;17.50;79.60;;;;;;5022188;28;20488;-78
2023/08/28 07:17:09;;;;;;;8.30;4.77;;;17.60;79.70;;;;;;5038109;28;20982;-80
2023/08/28 07:19:39;;;;;;;9.50;4.67;;;17.50;79.50;;;;;;5028992;28;20463;-77
2023/08/28 07:22:08;;;;;;;8.27;4.90;;;17.50;79.50;;;;;;5032630;28;20489;-79
2023/08/28 07:24:36;;;;;;;11.70;5.10;;;17.50;79.40;;;;;;5023041;28;20548;-79
2023/08/28 07:27:04;;;;;;;10.80;6.00;;;17.50;79.50;;;;;;5029172;28;20456;-79
2023/08/28 07:29:32;;;;;;;8.70;4.90;;;17.40;79.50;;;;;;5024795;28;20486;-80
2023/08/28 07:32:02;;;;;;;9.27;4.90;;;17.40;79.40;;;;;;5019263;28;21448;-80
2023/08/28 07:34:32;;;;;;;9.30;4.47;;;17.30;79.50;;;;;;5026940;28;20455;-79
2023/08/28 07:37:00;;;;;;;7.40;4.40;;;17.30;79.70;;;;;;5022175;28;20469;-81
2023/08/28 07:39:28;;;;;;;8.30;4.40;;;17.30;79.80;;;;;;5028317;28;20453;-80
2023/08/28 07:41:57;;;;;;;9.30;4.73;;;17.40;79.80;;;;;;5022760;28;20474;-80
2023/08/28 07:44:25;;;;;;;8.83;4.43;;;17.40;79.60;;;;;;5025514;28;20465;-79
2023/08/28 07:46:53;;;;;;;8.07;4.70;;;17.40;79.50;;;;;;5028146;28;20981;-77
2023/08/28 07:49:23;;;;;;;10.67;4.60;;;17.50;79.50;;;;;;5025263;28;20532;-79
2023/08/28 07:51:51;;;;;;;7.73;4.30;;;17.50;79.50;;;;;;5021132;28;20455;-76
2023/08/28 07:54:19;;;;;;;9.70;4.90;;;17.60;79.50;;;;;;5031949;28;20557;-77
2023/08/28 07:56:47;;;;;;;8.37;4.80;;;17.60;79.40;;;;;;5025625;28;20868;-77
2023/08/28 07:59:16;;;;;;;8.33;4.37;;;17.60;79.30;;;;;;5021530;28;20540;-78
2023/08/28 08:01:51;;;;;;;8.50;4.70;;;17.60;79.20;;;;;;5014227;28;20486;-79
2023/08/28 08:04:19;;;;;;;7.40;4.70;;;17.60;79.30;;;;;;5020755;28;20490;-79
2023/08/28 08:06:53;;;;;;;9.07;4.87;;;17.70;79.30;;;;;;5019375;28;20514;-78
2023/08/28 08:09:22;;;;;;;8.50;4.77;;;17.70;79.30;;;;;;5030390;28;21015;-80
2023/08/28 08:11:51;;;;;;;6.97;4.70;;;17.80;79.20;;;;;;5020325;28;20458;-77
2023/08/28 08:14:19;;;;;;;9.60;5.53;;;17.80;79.10;;;;;;5024096;28;20458;-78
2023/08/28 08:16:47;;;;;;;7.20;4.33;;;17.80;79.00;;;;;;5021272;28;21036;-77
2023/08/28 08:19:16;;;;;;;5.77;4.27;;;17.90;79.00;;;;;;5027789;28;20473;-78
2023/08/28 08:21:44;;;;;;;7.80;4.57;;;17.90;78.90;;;;;;5024533;28;20461;-80
2023/08/28 08:24:13;;;;;;;7.30;4.87;;;18.00;79.00;;;;;;5018278;28;20467;-81
2023/08/28 08:26:41;;;;;;;6.57;3.50;;;18.00;79.00;;;;;;5017971;28;20542;-79
2023/08/28 08:29:09;;;;;;;7.90;3.97;;;18.10;78.80;;;;;;5020329;28;20458;-78
2023/08/28 08:31:37;;;;;;;6.97;3.93;;;18.00;78.50;;;;;;5015725;28;20580;-79
2023/08/28 08:34:05;;;;;;;5.93;3.50;;;18.00;78.20;;;;;;5024250;28;20466;-79
2023/08/28 08:36:33;;;;;;;6.67;3.83;;;17.90;78.10;;;;;;5020351;28;20488;-79
2023/08/28 08:39:03;;;;;;;7.43;4.20;;;17.80;78.20;;;;;;5017404;28;20457;-78
2023/08/28 08:41:33;;;;;;;6.57;3.50;;;17.80;78.20;;;;;;5025131;28;20500;-79
2023/08/28 08:44:01;;;;;;;6.07;3.83;;;17.80;78.30;;;;;;5026297;28;20442;-79
2023/08/28 08:46:29;;;;;;;7.10;3.53;;;17.80;78.30;;;;;;5029795;28;21172;-77
2023/08/28 08:49:01;;;;;;;8.00;4.30;;;17.80;78.10;;;;;;5019164;28;20529;-77
2023/08/28 08:51:31;;;;;;;8.70;4.10;;;17.80;78.00;;;;;;5019445;28;21053;-79
2023/08/28 08:54:06;;;;;;;7.83;3.93;;;17.70;77.70;;;;;;5015070;28;20903;-78
2023/08/28 08:56:38;;;;;;;6.20;3.80;;;17.70;77.60;;;;;;5019224;28;21182;-79
2023/08/28 08:59:07;;;;;;;5.90;3.40;;;17.70;77.80;;;;;;5025340;28;20490;-79
2023/08/28 09:01:38;;;;;;;5.93;3.60;;;17.70;77.60;;;;;;5018377;28;20500;-78
2023/08/28 09:04:07;;;;;;;9.50;3.60;;;17.70;77.60;;;;;;5017488;28;20455;-77
2023/08/28 09:06:38;;;;;;;9.90;3.90;;;17.80;77.70;;;;;;5019993;28;20450;-79
2023/08/28 09:09:06;;;;;;;10.40;4.33;;;17.80;77.60;;;;;;5019110;28;21183;-76
2023/08/28 09:11:37;;;;;;;7.83;4.00;;;17.80;77.50;;;;;;5023438;28;20466;-76
2023/08/28 09:14:05;;;;;;;6.30;3.23;;;17.80;77.40;;;;;;5020502;28;20497;-80
2023/08/28 09:16:35;;;;;;;6.03;3.50;;;17.90;77.50;;;;;;5021915;28;20531;-80
2023/08/28 09:19:03;;;;;;;8.10;3.50;;;17.90;77.30;;;;;;5023683;28;20492;-79
2023/08/28 09:21:35;;;;;;;5.80;3.17;;;18.00;77.10;;;;;;5022319;28;21216;-80
2023/08/28 09:24:08;;;;;;;9.60;3.53;;;18.00;77.00;;;;;;5023117;28;20503;-79
2023/08/28 09:26:38;;;;;;;6.13;3.03;;;18.00;76.80;;;;;;5020423;28;20468;-79
2023/08/28 09:29:09;;;;;;;8.37;3.67;;;18.00;76.60;;;;;;5023142;28;21019;-80
2023/08/28 09:31:39;;;;;;;6.43;3.37;;;18.00;76.40;;;;;;5015361;28;21169;-80
2023/08/28 09:34:07;;;;;;;5.27;2.83;;;17.90;76.50;;;;;;5021201;28;20509;-79
2023/08/28 09:36:40;;;;;;;9.40;3.60;;;17.90;76.50;;;;;;5027977;28;20485;-78
2023/08/28 09:39:13;;;;;;;8.50;3.17;;;18.00;76.40;;;;;;5021641;28;20465;-81
2023/08/28 09:41:44;;;;;;;9.20;2.87;;;18.00;76.50;;;;;;5020836;28;20468;-80
2023/08/28 09:44:14;;;;;;;5.40;2.80;;;18.10;76.50;;;;;;5020725;28;21086;-77
2023/08/28 09:46:43;;;;;;;5.20;2.40;;;18.10;76.30;;;;;;5024708;28;20459;-79
2023/08/28 09:49:13;;;;;;;6.33;2.27;;;18.20;76.00;;;;;;5019942;28;20543;-79
2023/08/28 09:51:43;;;;;;;5.50;2.53;;;18.20;75.80;;;;;;5024627;28;20465;-79
2023/08/28 09:54:13;;;;;;;5.33;2.33;;;18.20;75.50;;;;;;5024420;28;20443;-78
2023/08/28 09:56:43;;;;;;;5.30;2.30;;;18.20;75.30;;;;;;5028378;28;20478;-79
2023/08/28 09:59:13;;;;;;;5.70;2.80;;;18.20;75.00;;;;;;5015942;28;21077;-81
2023/08/28 10:01:42;;;;;;;4.70;2.30;;;18.20;74.50;;;;;;5022866;28;20521;-79
2023/08/28 10:04:12;;;;;;;7.23;2.17;;;18.20;74.40;;;;;;5024366;28;20491;-78
2023/08/28 10:06:45;;;;;;;5.23;2.30;;;18.20;74.30;;;;;;5024268;28;20553;-75
2023/08/28 10:09:18;;;;;;;5.70;2.00;;;18.20;74.00;;;;;;5024086;28;20498;-78
2023/08/28 10:11:51;;;;;;;5.40;2.50;;;18.20;73.80;;;;;;5022785;28;21415;-78
2023/08/28 10:14:21;;;;;;;6.27;2.13;;;18.20;73.40;;;;;;5024882;28;20573;-79
2023/08/28 10:16:56;;;;;;;6.57;2.90;;;18.20;73.40;;;;;;5022649;28;20502;-78
2023/08/28 10:19:27;;;;;;;5.90;2.70;;;18.10;73.20;;;;;;5017086;28;20446;-79
2023/08/28 10:21:56;;;;;;;5.20;1.70;;;18.10;73.00;;;;;;5020077;28;20471;-79
2023/08/28 10:24:27;;;;;;;5.33;2.80;;;18.00;73.00;;;;;;5028243;28;20469;-80
2023/08/28 10:26:57;;;;;;;5.80;2.10;;;18.00;73.20;;;;;;5017945;28;20464;-79
2023/08/28 10:29:26;;;;;;;6.00;2.97;;;18.00;73.20;;;;;;5028393;28;20458;-78
2023/08/28 10:31:56;;;;;;;8.23;2.63;;;18.00;73.20;;;;;;5020674;28;20590;-79
2023/08/28 10:34:26;;;;;;;5.03;2.80;;;18.00;73.30;;;;;;5025041;28;20590;-79
2023/08/28 10:36:56;;;;;;;5.70;3.03;;;18.00;73.40;;;;;;5024776;28;20961;-81
2023/08/28 10:39:42;;;;;;;6.13;3.00;;;18.00;73.30;;;;;;5023050;28;20966;-79
2023/08/28 10:42:15;;;;;;;5.10;2.73;;;18.00;73.20;;;;;;5025748;28;20473;-78
2023/08/28 10:44:44;;;;;;;9.10;3.37;;;18.00;73.10;;;;;;5026010;28;20487;-78
2023/08/28 10:47:15;;;;;;;6.53;2.73;;;18.10;73.00;;;;;;5026851;28;20458;-79
2023/08/28 10:49:44;;;;;;;5.77;2.60;;;18.10;73.00;;;;;;5025905;28;20996;-76
2023/08/28 10:52:12;;;;;;;5.70;2.60;;;18.20;72.80;;;;;;5027290;28;20466;-77
2023/08/28 10:54:43;;;;;;;6.83;2.10;;;18.20;72.80;;;;;;5025896;28;20549;-81
2023/08/28 10:57:22;;;;;;;4.80;2.23;;;18.30;72.80;;;;;;5024211;28;20562;-81
2023/08/28 10:59:50;;;;;;;5.20;2.07;;;18.40;72.70;;;;;;5039344;28;20817;-81
2023/08/28 11:02:19;;;;;;;5.70;2.27;;;18.40;72.20;;;;;;5028331;28;20478;-78
2023/08/28 11:04:48;;;;;;;4.90;1.90;;;18.50;71.80;;;;;;5024777;28;20455;-82
2023/08/28 11:07:44;;;;;;;5.80;1.70;;;18.50;71.50;;;;;;5021007;28;21001;-80
2023/08/28 11:10:20;;;;;;;7.90;2.03;;;18.50;71.50;;;;;;5020527;28;20551;-79
2023/08/28 11:12:54;;;;;;;4.20;1.80;;;18.50;71.40;;;;;;5022684;28;20443;-81
2023/08/28 11:15:27;;;;;;;4.93;1.57;;;18.60;71.50;;;;;;5029078;28;20522;-79
2023/08/28 11:18:27;;;;;;;6.03;1.80;;;18.60;71.40;;;;;;5028869;28;20471;-80
2023/08/28 11:20:56;;;;;;;5.50;1.70;;;18.60;70.80;;;;;;4994467;28;20499;-80
2023/08/28 11:23:26;;;;;;;4.10;1.40;;;18.60;70.80;;;;;;5026064;28;20451;-78
2023/08/28 11:25:55;;;;;;;4.50;1.80;;;18.70;70.90;;;;;;5020936;28;20464;-79
2023/08/28 11:28:33;;;;;;;5.47;1.77;;;18.70;70.90;;;;;;5029029;28;20470;-80
2023/08/28 11:31:03;;;;;;;4.93;1.60;;;18.70;70.60;;;;;;5028329;28;20482;-77
2023/08/28 11:33:42;;;;;;;7.10;1.50;;;18.80;70.50;;;;;;5025037;28;20466;-78
2023/08/28 11:36:18;;;;;;;5.00;1.63;;;18.90;70.00;;;;;;5025710;28;20499;-78
2023/08/28 11:38:47;;;;;;;4.37;1.87;;;18.80;69.50;;;;;;5024483;28;20581;-80
2023/08/28 11:41:16;;;;;;;4.70;1.80;;;18.80;69.60;;;;;;5030380;28;20458;-79
2023/08/28 11:43:45;;;;;;;4.13;1.40;;;18.80;69.90;;;;;;5029752;28;20916;-78
2023/08/28 11:46:13;;;;;;;4.00;1.50;;;18.90;69.90;;;;;;5026128;28;21010;-80
2023/08/28 11:48:45;;;;;;;4.23;1.30;;;19.00;69.80;;;;;;5021053;28;20958;-79
2023/08/28 11:51:13;;;;;;;4.67;1.73;;;19.10;69.80;;;;;;5023930;28;20825;-82
2023/08/28 11:53:43;;;;;;;4.57;1.50;;;19.10;69.80;;;;;;5024759;28;20825;-78
2023/08/28 11:56:13;;;;;;;5.20;1.70;;;19.20;69.60;;;;;;5024243;28;20460;-79
2023/08/28 11:58:42;;;;;;;3.93;1.13;;;19.20;69.50;;;;;;5024773;28;20471;-77
2023/08/28 12:01:12;;;;;;;4.07;1.20;;;19.30;69.40;;;;;;5027113;28;20475;-81
2023/08/28 12:03:42;;;;;;;7.50;1.40;;;19.20;69.10;;;;;;5022415;28;20456;-80
2023/08/28 12:06:17;;;;;;;4.23;1.33;;;19.20;68.80;;;;;;5022788;28;21081;-81
2023/08/28 12:08:47;;;;;;;4.10;1.10;;;19.20;68.80;;;;;;5019847;28;20455;-79
2023/08/28 12:11:15;;;;;;;9.13;1.30;;;19.20;68.70;;;;;;5024857;28;20913;-79
2023/08/28 12:13:45;;;;;;;5.33;1.83;;;19.20;68.80;;;;;;5021820;28;20490;-78
2023/08/28 12:16:17;;;;;;;3.83;1.30;;;19.20;68.90;;;;;;5027635;28;20470;-79
2023/08/28 12:18:48;;;;;;;5.37;1.47;;;19.30;68.90;;;;;;5021094;28;20884;-80
2023/08/28 12:21:17;;;;;;;8.73;1.93;;;19.30;68.90;;;;;;5029094;28;20563;-80
2023/08/28 12:23:46;;;;;;;4.63;0.93;;;19.30;68.70;;;;;;5021326;28;20566;-81
2023/08/28 12:26:16;;;;;;;10.33;1.70;;;19.40;68.50;;;;;;5022998;28;20459;-78
2023/08/28 12:28:45;;;;;;;3.93;1.50;;;19.40;68.20;;;;;;5021012;28;21082;-81
2023/08/28 12:31:14;;;;;;;3.70;1.30;;;19.30;68.10;;;;;;5018011;28;20598;-80
2023/08/28 12:33:45;;;;;;;4.37;1.60;;;19.40;68.20;;;;;;5024592;28;20486;-79
2023/08/28 12:36:13;;;;;;;5.00;1.60;;;19.50;68.20;;;;;;5021453;28;20460;-79
2023/08/28 12:38:46;;;;;;;5.13;1.30;;;19.50;68.00;;;;;;5023161;28;20816;-78
2023/08/28 12:41:14;;;;;;;5.00;1.67;;;19.50;67.60;;;;;;5018143;28;20471;-82
2023/08/28 12:43:45;;;;;;;3.77;1.30;;;19.50;67.70;;;;;;5027922;28;20478;-80
2023/08/28 12:46:15;;;;;;;4.30;1.30;;;19.50;67.50;;;;;;5020496;28;20496;-80
2023/08/28 12:48:44;;;;;;;4.60;1.70;;;19.50;67.30;;;;;;5024596;28;20451;-77
2023/08/28 12:51:12;;;;;;;5.00;1.50;;;19.50;67.40;;;;;;5023485;28;20465;-81
2023/08/28 12:53:40;;;;;;;4.43;1.57;;;19.50;67.30;;;;;;5025042;28;20462;-78
2023/08/28 12:56:08;;;;;;;3.70;1.20;;;19.50;67.30;;;;;;5025115;28;20476;-79
2023/08/28 12:58:36;;;;;;;4.40;1.23;;;19.50;67.10;;;;;;5029108;28;21217;-81